ルレオ の空港の天気 - METARとTAF

Lulea / Kallax ( ESPA / LLA ) - スウェーデン ルレオ
飛行場実況気象(Metar)
観測時間03/28 23:20 CEST (03/28 21:20 UTC)
風向・風速西北西 3m/s
視程10km以上
天気現象
なし
気温-6℃
湿度58%
気圧1012hPa
METARESPA 282120Z 29005KT CAVOK M06/M13 Q1012
過去の天気等 Google飛行場航空写真 Wunderground天気予報

過去48時間のMETAR

飛行場予報(TAF)
発表時間: 3/28 22:30 CEST (3/28 20:30 UTC)
予報対象時間: 28日23時 CEST ~ 29日1時 CEST
風向・風速西北西 4m/s
視程10km以上
なし
TAF ESPA 282030Z 2821/2823 30008KT CAVOK